createdAt,value
2018-04-07T00:00:51.957Z,53.3
2018-04-07T00:01:53.575Z,53.4
2018-04-07T00:02:55.193Z,53.4
2018-04-07T00:03:56.810Z,53.4
2018-04-07T00:04:58.431Z,53.3
2018-04-07T00:06:00.038Z,53.1
2018-04-07T00:07:01.657Z,52.6
2018-04-07T00:08:03.267Z,52.7
2018-04-07T00:09:05.454Z,52.6
2018-04-07T00:10:07.073Z,52.9
2018-04-07T00:11:08.687Z,52.6
2018-04-07T00:12:10.304Z,52.7
2018-04-07T00:13:11.917Z,52.7
2018-04-07T00:14:13.534Z,53.1
2018-04-07T00:15:15.147Z,52.8
2018-04-07T00:16:16.763Z,53.0
2018-04-07T00:17:18.377Z,53.0
2018-04-07T00:18:19.995Z,52.7
2018-04-07T00:19:21.615Z,52.4
2018-04-07T00:20:23.222Z,52.9
2018-04-07T00:21:24.839Z,52.6
2018-04-07T00:22:26.454Z,52.6
2018-04-07T00:23:28.070Z,52.8
2018-04-07T00:24:29.686Z,52.8
2018-04-07T00:25:31.302Z,52.7
2018-04-07T00:26:32.916Z,53.0
2018-04-07T00:27:34.529Z,53.1
2018-04-07T00:28:36.144Z,53.6
2018-04-07T00:29:37.759Z,53.3
2018-04-07T00:30:39.374Z,53.4
2018-04-07T00:31:40.992Z,53.5
2018-04-07T00:32:42.609Z,53.2
2018-04-07T00:33:44.228Z,53.2
2018-04-07T00:34:45.843Z,53.2
2018-04-07T00:35:47.456Z,53.2
2018-04-07T00:36:49.070Z,53.4
2018-04-07T00:37:50.685Z,53.3
2018-04-07T00:38:52.304Z,53.1
2018-04-07T00:39:53.921Z,54.3
2018-04-07T00:40:55.536Z,53.7
2018-04-07T00:41:57.158Z,54.5
2018-04-07T00:42:58.768Z,54.3
2018-04-07T00:44:00.382Z,54.5
2018-04-07T00:45:02.000Z,55.0
2018-04-07T00:46:03.616Z,54.6
2018-04-07T00:47:05.233Z,54.9
2018-04-07T00:48:06.852Z,54.9
2018-04-07T00:49:08.464Z,54.9
2018-04-07T00:50:10.080Z,54.6
2018-04-07T00:51:11.692Z,55.1
2018-04-07T00:52:13.305Z,55.1
2018-04-07T00:53:14.924Z,55.2
2018-04-07T00:54:16.535Z,54.9
2018-04-07T00:55:18.152Z,54.5
2018-04-07T00:56:19.768Z,54.4
2018-04-07T00:57:21.382Z,55.1
2018-04-07T00:58:22.996Z,55.1
2018-04-07T00:59:24.611Z,55.2
2018-04-07T01:00:26.225Z,55.1
2018-04-07T01:01:27.841Z,55.0
2018-04-07T01:02:29.457Z,55.4
2018-04-07T01:03:31.071Z,55.4
2018-04-07T01:04:32.687Z,55.3
2018-04-07T01:05:34.300Z,55.1
2018-04-07T01:06:35.914Z,55.0
2018-04-07T01:07:37.527Z,54.7
2018-04-07T01:08:39.151Z,54.5
2018-04-07T01:09:40.765Z,54.5
2018-04-07T01:10:42.380Z,55.0
2018-04-07T01:11:43.995Z,54.9
2018-04-07T01:12:45.608Z,54.8
2018-04-07T01:13:47.224Z,54.8
2018-04-07T01:14:48.838Z,55.0
2018-04-07T01:15:50.457Z,54.6
2018-04-07T01:16:52.071Z,54.8
2018-04-07T01:17:53.686Z,55.2
2018-04-07T01:18:55.301Z,55.6
2018-04-07T01:19:56.915Z,55.4
2018-04-07T01:20:58.530Z,55.5
2018-04-07T01:22:00.145Z,54.9
2018-04-07T01:23:01.762Z,55.5
2018-04-07T01:24:03.378Z,55.5
2018-04-07T01:25:04.991Z,55.8
2018-04-07T01:26:06.605Z,55.2
2018-04-07T01:27:08.219Z,54.9
2018-04-07T01:28:09.831Z,55.3
2018-04-07T01:29:11.451Z,55.3
2018-04-07T01:30:13.068Z,55.0
2018-04-07T01:31:14.678Z,55.2
2018-04-07T01:32:16.294Z,55.2
2018-04-07T01:33:17.907Z,55.7
2018-04-07T01:34:19.522Z,55.3
2018-04-07T01:35:21.138Z,55.3
2018-04-07T01:36:22.756Z,54.9
2018-04-07T01:37:24.374Z,55.3
2018-04-07T01:38:25.987Z,55.8
2018-04-07T01:39:27.603Z,55.9
2018-04-07T01:40:29.217Z,56.0
2018-04-07T01:41:30.830Z,56.0
2018-04-07T01:42:32.446Z,56.0
2018-04-07T01:43:34.062Z,56.0
2018-04-07T01:44:35.678Z,55.7
2018-04-07T01:45:37.295Z,55.8
2018-04-07T01:46:38.911Z,55.6
2018-04-07T01:47:40.526Z,56.0
2018-04-07T01:48:42.139Z,55.8
2018-04-07T01:49:43.753Z,56.4
2018-04-07T01:50:45.368Z,56.5
2018-04-07T01:51:46.984Z,56.4
2018-04-07T01:52:48.600Z,55.7
2018-04-07T01:53:50.216Z,56.0
2018-04-07T01:54:51.830Z,56.2
2018-04-07T01:55:53.443Z,57.0
2018-04-07T01:56:55.080Z,57.0
2018-04-07T01:57:56.695Z,57.2
2018-04-07T01:58:58.311Z,57.1
2018-04-07T01:59:59.927Z,57.1
2018-04-07T02:01:01.539Z,56.9
2018-04-07T02:02:03.154Z,57.0
2018-04-07T02:03:04.767Z,56.7
2018-04-07T02:04:06.384Z,57.0
2018-04-07T02:05:07.997Z,57.1
2018-04-07T02:06:09.616Z,56.9
2018-04-07T02:07:11.229Z,56.9
2018-04-07T02:08:12.842Z,56.8
2018-04-07T02:09:14.460Z,57.4
2018-04-07T02:10:16.070Z,57.2
2018-04-07T02:11:17.693Z,57.0
2018-04-07T02:12:19.304Z,57.0
2018-04-07T02:13:20.921Z,56.8
2018-04-07T02:14:22.537Z,57.3
2018-04-07T02:15:24.151Z,57.1
2018-04-07T02:16:25.762Z,57.0
2018-04-07T02:17:27.377Z,57.8
2018-04-07T02:18:28.995Z,57.4
2018-04-07T02:19:30.608Z,57.7
2018-04-07T02:20:32.225Z,57.9
2018-04-07T02:21:33.844Z,58.0
2018-04-07T02:22:35.456Z,57.7
2018-04-07T02:23:37.070Z,57.7
2018-04-07T02:24:38.685Z,57.8
2018-04-07T02:25:40.301Z,57.4
2018-04-07T02:26:41.916Z,58.0
2018-04-07T02:27:43.530Z,57.7
2018-04-07T02:28:45.146Z,58.0
2018-04-07T02:29:46.761Z,58.0
2018-04-07T02:30:48.378Z,58.1
2018-04-07T02:31:49.988Z,58.0
2018-04-07T02:32:51.611Z,58.3
2018-04-07T02:33:53.217Z,58.7
2018-04-07T02:34:54.833Z,58.6
2018-04-07T02:35:56.450Z,59.1
2018-04-07T02:36:58.063Z,59.1
2018-04-07T02:37:59.678Z,58.9
2018-04-07T02:39:01.298Z,58.4
2018-04-07T02:40:02.914Z,58.6
2018-04-07T02:41:04.529Z,58.6
2018-04-07T02:42:06.140Z,58.6
2018-04-07T02:43:07.756Z,59.4
2018-04-07T02:44:09.369Z,58.8
2018-04-07T02:45:10.981Z,58.9
2018-04-07T02:46:12.598Z,58.9
2018-04-07T02:47:14.209Z,59.2
2018-04-07T02:48:15.827Z,59.0
2018-04-07T02:49:17.449Z,59.2
2018-04-07T02:50:19.186Z,59.2
2018-04-07T02:51:20.667Z,58.7
2018-04-07T02:52:22.294Z,59.2
2018-04-07T02:53:23.909Z,59.0
2018-04-07T02:54:25.558Z,59.0
2018-04-07T02:55:27.138Z,59.0
2018-04-07T02:56:28.753Z,59.2
2018-04-07T02:57:30.371Z,59.1
2018-04-07T02:58:31.988Z,59.4
2018-04-07T02:59:33.596Z,59.2
2018-04-07T03:00:35.211Z,59.0
2018-04-07T03:01:36.823Z,59.3
2018-04-07T03:02:38.439Z,59.3
2018-04-07T03:03:40.079Z,59.4
2018-04-07T03:04:41.667Z,59.3
2018-04-07T03:05:43.282Z,59.3
2018-04-07T03:06:44.895Z,59.0
2018-04-07T03:07:46.510Z,59.2
2018-04-07T03:08:48.124Z,59.1
2018-04-07T03:09:49.738Z,59.2
2018-04-07T03:10:51.353Z,59.0
2018-04-07T03:11:52.968Z,58.9
2018-04-07T03:12:54.581Z,59.5
2018-04-07T03:13:56.199Z,59.0
2018-04-07T03:14:58.705Z,58.8
2018-04-07T03:16:00.315Z,59.3
2018-04-07T03:17:01.936Z,59.1
2018-04-07T03:18:03.546Z,59.1
2018-04-07T03:19:05.162Z,58.9
2018-04-07T03:20:06.777Z,59.3
2018-04-07T03:21:08.390Z,59.9
2018-04-07T03:22:10.006Z,60.1
2018-04-07T03:23:11.626Z,59.9
2018-04-07T03:24:13.237Z,60.5
2018-04-07T03:25:14.854Z,60.5
2018-04-07T03:26:16.471Z,60.5
2018-04-07T03:27:18.080Z,61.4
2018-04-07T03:28:19.696Z,61.4
2018-04-07T03:29:21.309Z,61.5
2018-04-07T03:30:22.925Z,61.5
2018-04-07T03:31:24.540Z,61.5
2018-04-07T03:32:26.154Z,61.5
2018-04-07T03:33:27.768Z,61.7
2018-04-07T03:34:29.382Z,61.5
2018-04-07T03:35:30.994Z,61.8
2018-04-07T03:36:32.610Z,61.5
2018-04-07T03:37:34.223Z,61.4
2018-04-07T03:38:35.839Z,61.6
2018-04-07T03:39:37.461Z,61.7
2018-04-07T03:40:39.071Z,61.7
2018-04-07T03:41:40.682Z,61.3
2018-04-07T03:42:42.296Z,61.8
2018-04-07T03:43:43.912Z,61.5
2018-04-07T03:44:45.528Z,61.4
2018-04-07T03:45:47.142Z,61.9
2018-04-07T03:46:48.757Z,62.1
2018-04-07T03:47:50.374Z,62.0
2018-04-07T03:48:51.986Z,61.5
2018-04-07T03:49:53.600Z,61.7
2018-04-07T03:50:55.213Z,62.0
2018-04-07T03:51:56.829Z,61.7
2018-04-07T03:52:58.440Z,62.0
2018-04-07T03:54:00.057Z,61.9
2018-04-07T03:55:01.677Z,61.9
2018-04-07T03:56:03.285Z,62.0
2018-04-07T03:57:04.899Z,62.3
2018-04-07T03:58:06.512Z,62.7
2018-04-07T03:59:08.126Z,63.0
2018-04-07T04:00:09.744Z,64.3
2018-04-07T04:01:11.358Z,64.2
2018-04-07T04:02:12.974Z,64.5
2018-04-07T04:03:14.592Z,64.9
2018-04-07T04:04:16.201Z,65.0
2018-04-07T04:05:17.812Z,65.6
2018-04-07T04:06:19.425Z,65.1
2018-04-07T04:07:21.042Z,65.2
2018-04-07T04:08:22.651Z,65.3
2018-04-07T04:09:24.268Z,65.7
2018-04-07T04:10:25.880Z,65.3
2018-04-07T04:11:27.495Z,65.5
2018-04-07T04:12:29.111Z,65.3
2018-04-07T04:13:30.721Z,65.3
2018-04-07T04:14:32.333Z,65.1
2018-04-07T04:15:33.948Z,66.1
2018-04-07T04:16:35.565Z,66.1
2018-04-07T04:17:37.174Z,66.3
2018-04-07T04:18:38.790Z,66.6
2018-04-07T04:19:40.396Z,66.6
2018-04-07T04:20:42.010Z,66.5
2018-04-07T04:21:43.624Z,66.2
2018-04-07T04:22:45.238Z,66.5
2018-04-07T04:23:46.856Z,66.5
2018-04-07T04:24:48.463Z,66.3
2018-04-07T04:25:50.075Z,66.4
2018-04-07T04:26:52.146Z,66.3
2018-04-07T04:27:53.244Z,66.7
2018-04-07T04:28:54.862Z,66.5
2018-04-07T04:29:56.479Z,66.9
2018-04-07T04:30:58.095Z,67.2
2018-04-07T04:31:59.709Z,67.3
2018-04-07T04:33:01.312Z,67.7
2018-04-07T04:34:02.935Z,67.6
2018-04-07T04:35:04.547Z,66.9
2018-04-07T04:36:06.161Z,66.7
2018-04-07T04:37:07.775Z,66.8
2018-04-07T04:38:09.392Z,67.2
2018-04-07T04:39:11.003Z,67.4
2018-04-07T04:40:12.615Z,67.6
2018-04-07T04:41:14.227Z,68.2
2018-04-07T04:42:15.840Z,67.7
2018-04-07T04:43:17.459Z,67.8
2018-04-07T04:44:19.072Z,68.0
2018-04-07T04:45:20.688Z,68.2
2018-04-07T04:46:22.302Z,68.7
2018-04-07T04:47:24.648Z,69.1
2018-04-07T04:48:25.490Z,69.5
2018-04-07T04:49:27.109Z,69.3
2018-04-07T04:50:28.724Z,69.7
2018-04-07T04:51:30.343Z,68.7
2018-04-07T04:52:31.959Z,68.6
2018-04-07T04:53:33.575Z,69.7
2018-04-07T04:54:35.191Z,69.2
2018-04-07T04:55:36.806Z,69.2
2018-04-07T04:56:38.424Z,69.5
2018-04-07T04:57:40.040Z,69.3
2018-04-07T04:58:41.657Z,69.5
2018-04-07T04:59:43.275Z,69.4
2018-04-07T05:00:44.890Z,69.3
2018-04-07T05:01:46.503Z,69.1
2018-04-07T05:02:48.130Z,69.4
2018-04-07T05:03:49.740Z,69.2
2018-04-07T05:04:51.357Z,69.6
2018-04-07T05:05:52.975Z,70.1
2018-04-07T05:06:54.594Z,70.1
2018-04-07T05:07:56.206Z,69.4
2018-04-07T05:08:57.822Z,69.5
2018-04-07T05:09:59.436Z,69.3
2018-04-07T05:11:01.052Z,68.4
2018-04-07T05:12:02.667Z,69.3
2018-04-07T05:13:04.284Z,69.6
2018-04-07T05:14:05.901Z,69.6
2018-04-07T05:15:07.518Z,69.5
2018-04-07T05:16:09.134Z,69.6
2018-04-07T05:17:10.748Z,69.9
2018-04-07T05:18:12.366Z,70.0
2018-04-07T05:19:13.984Z,72.3
2018-04-07T05:20:15.602Z,72.7
2018-04-07T05:21:17.224Z,71.1
2018-04-07T05:22:18.864Z,69.5
2018-04-07T05:23:20.475Z,69.1
2018-04-07T05:24:22.097Z,69.1
2018-04-07T05:25:23.720Z,68.4
2018-04-07T05:26:25.339Z,67.8
2018-04-07T05:27:27.454Z,67.6
2018-04-07T05:28:29.078Z,67.8
2018-04-07T05:29:30.688Z,67.6
2018-04-07T05:30:32.304Z,67.5
2018-04-07T05:31:33.923Z,67.8
2018-04-07T05:32:35.542Z,67.1
2018-04-07T05:33:37.162Z,68.0
2018-04-07T05:34:38.776Z,67.4
2018-04-07T05:35:40.393Z,67.5
2018-04-07T05:36:42.013Z,67.8
2018-04-07T05:37:43.629Z,68.5
2018-04-07T05:38:45.253Z,68.3
2018-04-07T05:39:46.862Z,68.3
2018-04-07T05:40:48.481Z,68.5
2018-04-07T05:41:50.093Z,67.4
2018-04-07T05:42:51.718Z,66.7
2018-04-07T05:43:53.328Z,66.3
2018-04-07T05:44:54.949Z,66.0
2018-04-07T05:45:56.568Z,66.0
2018-04-07T05:46:58.186Z,66.1
2018-04-07T05:47:59.803Z,66.3
2018-04-07T05:49:01.434Z,66.3
2018-04-07T05:50:03.052Z,67.5
2018-04-07T05:51:04.676Z,67.7
2018-04-07T05:52:06.287Z,68.4
2018-04-07T05:53:08.072Z,66.1
2018-04-07T05:54:09.688Z,63.8
2018-04-07T05:55:11.304Z,63.8
2018-04-07T05:56:12.927Z,63.1
2018-04-07T05:57:14.546Z,62.8
2018-04-07T05:58:16.166Z,62.5
2018-04-07T05:59:17.775Z,62.5
2018-04-07T06:00:19.394Z,61.9
2018-04-07T06:01:21.011Z,62.0
2018-04-07T06:02:22.635Z,61.7
2018-04-07T06:03:24.251Z,61.9
2018-04-07T06:04:25.873Z,61.9
2018-04-07T06:05:27.483Z,62.1
2018-04-07T06:06:29.102Z,61.8
2018-04-07T06:07:30.721Z,61.6
2018-04-07T06:08:32.335Z,62.3
2018-04-07T06:09:33.959Z,61.6
2018-04-07T06:10:35.583Z,61.7
2018-04-07T06:11:37.193Z,61.0
2018-04-07T06:12:38.814Z,59.9
2018-04-07T06:13:40.437Z,56.5
2018-04-07T06:14:42.056Z,53.0
2018-04-07T06:15:43.672Z,50.6
2018-04-07T06:16:45.300Z,48.8
2018-04-07T06:17:46.914Z,45.4
2018-04-07T06:18:48.539Z,44.9
2018-04-07T06:19:50.161Z,43.2
2018-04-07T06:20:51.783Z,41.2
2018-04-07T06:21:53.417Z,40.9
2018-04-07T06:22:55.055Z,39.4
2018-04-07T06:23:56.645Z,38.3
2018-04-07T06:24:58.273Z,37.8
2018-04-07T06:25:59.891Z,37.8
2018-04-07T06:27:01.510Z,37.0
2018-04-07T06:28:03.134Z,35.5
2018-04-07T06:29:04.757Z,34.7
2018-04-07T06:30:06.383Z,35.1
2018-04-07T06:31:08.006Z,34.5
2018-04-07T06:32:09.629Z,34.1
2018-04-07T06:33:11.257Z,33.4
2018-04-07T06:34:12.882Z,33.2
2018-04-07T06:35:14.503Z,32.3
2018-04-07T06:36:16.128Z,32.7
2018-04-07T06:37:17.755Z,32.9
2018-04-07T06:38:19.376Z,33.0
2018-04-07T06:39:21.007Z,32.7
2018-04-07T06:40:22.631Z,32.8
2018-04-07T06:41:25.038Z,32.9
2018-04-07T06:42:26.654Z,32.0
2018-04-07T06:43:28.280Z,31.8
2018-04-07T06:44:29.905Z,31.4
2018-04-07T06:45:31.531Z,32.2
2018-04-07T06:46:33.156Z,32.6
2018-04-07T06:47:35.301Z,31.7
2018-04-07T06:48:36.941Z,32.2
2018-04-07T06:49:38.568Z,32.7
2018-04-07T06:50:40.196Z,32.0
2018-04-07T06:51:41.825Z,31.5
2018-04-07T06:52:43.452Z,31.2
2018-04-07T06:53:45.080Z,31.8
2018-04-07T06:54:46.703Z,31.7
2018-04-07T06:55:48.328Z,32.0
2018-04-07T06:56:49.948Z,31.4
2018-04-07T06:57:51.589Z,31.6
2018-04-07T06:58:53.215Z,30.6
2018-04-07T06:59:54.841Z,30.5
2018-04-07T07:00:56.465Z,29.6
2018-04-07T07:01:58.100Z,29.1
2018-04-07T07:02:59.716Z,28.7
2018-04-07T07:04:01.352Z,29.1
2018-04-07T07:05:02.979Z,29.0
2018-04-07T07:06:04.601Z,28.4
2018-04-07T07:07:06.232Z,28.4
2018-04-07T07:08:07.858Z,28.6
2018-04-07T07:09:09.485Z,28.5
2018-04-07T07:10:11.111Z,28.5
2018-04-07T07:11:12.737Z,27.9
2018-04-07T07:12:14.362Z,27.6
2018-04-07T07:13:15.993Z,27.4
2018-04-07T07:14:18.124Z,26.3
2018-04-07T07:15:19.757Z,25.8
2018-04-07T07:16:21.387Z,26.5
2018-04-07T07:17:23.018Z,25.6
2018-04-07T07:18:24.642Z,25.3
2018-04-07T07:19:26.268Z,25.6
2018-04-07T07:20:27.894Z,25.5
2018-04-07T07:21:29.528Z,25.2
2018-04-07T07:22:31.156Z,24.7
2018-04-07T07:23:32.791Z,24.3
2018-04-07T07:24:34.417Z,24.9
2018-04-07T07:25:36.050Z,23.7
2018-04-07T07:26:37.679Z,24.6
2018-04-07T07:27:39.309Z,24.3
2018-04-07T07:28:40.939Z,24.8
2018-04-07T07:29:42.569Z,24.0
2018-04-07T07:30:44.209Z,23.9
2018-04-07T07:31:45.833Z,23.1
2018-04-07T07:32:47.469Z,22.9
2018-04-07T07:33:49.095Z,22.8
2018-04-07T07:34:50.729Z,22.7
2018-04-07T07:35:52.365Z,22.9
2018-04-07T07:36:53.995Z,23.0
2018-04-07T07:37:55.632Z,22.8
2018-04-07T07:38:57.258Z,22.2
2018-04-07T07:39:58.894Z,21.6
2018-04-07T07:41:00.523Z,21.4
2018-04-07T07:42:02.190Z,21.2
2018-04-07T07:43:03.794Z,21.6
2018-04-07T07:44:05.431Z,21.8
2018-04-07T07:45:07.073Z,21.6
2018-04-07T07:46:08.702Z,21.6
2018-04-07T07:47:10.327Z,21.8
2018-04-07T07:48:11.964Z,21.3
2018-04-07T07:49:14.228Z,22.0
2018-04-07T07:50:15.863Z,21.6
2018-04-07T07:51:17.493Z,21.7
2018-04-07T07:52:19.130Z,22.8
2018-04-07T07:53:20.760Z,23.2
2018-04-07T07:54:22.399Z,23.4
2018-04-07T07:55:24.027Z,24.2
2018-04-07T07:56:25.668Z,24.5
2018-04-07T07:57:27.298Z,23.5
2018-04-07T07:58:28.955Z,23.3
2018-04-07T07:59:30.592Z,22.9
2018-04-07T08:00:32.222Z,22.6
2018-04-07T08:01:33.855Z,23.0
2018-04-07T08:02:35.492Z,23.0
2018-04-07T08:03:37.130Z,23.2
2018-04-07T08:04:38.758Z,23.4
2018-04-07T08:05:40.390Z,23.3
2018-04-07T08:06:42.028Z,23.1
2018-04-07T08:07:43.663Z,24.5
2018-04-07T08:08:45.982Z,23.6
2018-04-07T08:09:47.611Z,23.1
2018-04-07T08:10:49.250Z,23.2
2018-04-07T08:11:50.877Z,23.3
2018-04-07T08:12:52.517Z,23.1
2018-04-07T08:13:54.147Z,23.3
2018-04-07T08:14:55.778Z,23.6
2018-04-07T08:15:57.417Z,23.1
2018-04-07T08:16:59.048Z,22.7
2018-04-07T08:18:00.680Z,22.7
2018-04-07T08:19:02.319Z,22.7
2018-04-07T08:20:03.957Z,21.9
2018-04-07T08:21:05.583Z,22.0
2018-04-07T08:22:07.215Z,21.9
2018-04-07T08:23:08.852Z,21.2
2018-04-07T08:24:10.490Z,20.9
2018-04-07T08:25:12.120Z,21.5
2018-04-07T08:26:13.802Z,21.5
2018-04-07T08:27:15.396Z,20.2
2018-04-07T08:28:17.030Z,21.9
2018-04-07T08:29:18.666Z,22.4
2018-04-07T08:30:20.299Z,22.3
2018-04-07T08:31:21.933Z,21.4
2018-04-07T08:32:23.569Z,21.0
2018-04-07T08:33:25.210Z,21.5
2018-04-07T08:34:26.844Z,21.9
2018-04-07T08:35:28.483Z,21.4
2018-04-07T08:36:30.119Z,20.7
2018-04-07T08:37:31.757Z,20.7
2018-04-07T08:38:33.389Z,21.2
2018-04-07T08:39:35.079Z,21.3
2018-04-07T08:40:36.666Z,21.4
2018-04-07T08:41:38.308Z,21.1
2018-04-07T08:42:39.943Z,21.3
2018-04-07T08:43:41.574Z,21.0
2018-04-07T08:44:43.204Z,21.1
2018-04-07T08:45:44.843Z,21.2
2018-04-07T08:46:46.477Z,21.6
2018-04-07T08:47:48.117Z,21.7
2018-04-07T08:48:49.756Z,21.7
2018-04-07T08:49:51.390Z,21.5
2018-04-07T08:50:53.022Z,22.9
2018-04-07T08:51:54.661Z,22.9
2018-04-07T08:52:56.290Z,22.3
2018-04-07T08:53:57.933Z,22.3
2018-04-07T08:54:59.565Z,22.0
2018-04-07T08:56:01.205Z,21.5
2018-04-07T08:57:02.836Z,21.3
2018-04-07T08:58:04.474Z,21.7
2018-04-07T08:59:06.105Z,22.5
2018-04-07T09:00:07.746Z,24.2
2018-04-07T09:01:09.377Z,24.8
2018-04-07T09:02:11.018Z,23.6
2018-04-07T09:03:12.657Z,23.0
2018-04-07T09:04:14.293Z,22.4
2018-04-07T09:05:15.933Z,22.9
2018-04-07T09:06:17.556Z,22.8
2018-04-07T09:07:19.193Z,23.2
2018-04-07T09:08:20.835Z,22.8
2018-04-07T09:09:22.470Z,22.3
2018-04-07T09:10:24.103Z,22.1
2018-04-07T09:11:25.739Z,21.6
2018-04-07T09:12:27.376Z,21.4
2018-04-07T09:13:29.014Z,21.1
2018-04-07T09:14:30.666Z,21.2
2018-04-07T09:15:32.294Z,21.3
2018-04-07T09:16:33.927Z,21.3
2018-04-07T09:17:36.143Z,21.2
2018-04-07T09:18:37.789Z,21.3
2018-04-07T09:19:39.420Z,21.3
2018-04-07T09:20:41.055Z,21.3
2018-04-07T09:21:42.695Z,21.2
2018-04-07T09:22:44.330Z,20.0
2018-04-07T09:23:45.970Z,20.2
2018-04-07T09:24:47.611Z,21.1
2018-04-07T09:25:49.298Z,21.1
2018-04-07T09:26:50.880Z,21.5
2018-04-07T09:27:52.522Z,21.2
2018-04-07T09:28:54.155Z,21.2
2018-04-07T09:29:55.796Z,20.8
2018-04-07T09:30:57.434Z,20.6
2018-04-07T09:31:59.068Z,21.3
2018-04-07T09:33:00.714Z,21.1
2018-04-07T09:34:03.297Z,21.6
2018-04-07T09:35:04.931Z,21.3
2018-04-07T09:36:06.569Z,21.2
2018-04-07T09:37:08.211Z,21.0
2018-04-07T09:38:09.851Z,21.2
2018-04-07T09:39:11.487Z,21.7
2018-04-07T09:40:13.124Z,21.7
2018-04-07T09:41:14.762Z,22.1
2018-04-07T09:42:16.398Z,22.7
2018-04-07T09:43:18.038Z,21.8
2018-04-07T09:44:19.677Z,22.3
2018-04-07T09:45:21.312Z,22.2
2018-04-07T09:46:22.958Z,22.4
2018-04-07T09:47:24.593Z,21.9
2018-04-07T09:48:26.232Z,22.6
2018-04-07T09:49:27.878Z,22.1
2018-04-07T09:50:29.504Z,21.8
2018-04-07T09:51:31.143Z,21.9
2018-04-07T09:52:32.784Z,21.4
2018-04-07T09:53:34.469Z,21.4
2018-04-07T09:54:36.067Z,21.2
2018-04-07T09:55:38.558Z,21.2
2018-04-07T09:56:40.192Z,21.6
2018-04-07T09:57:41.834Z,21.6
2018-04-07T09:58:43.471Z,21.4
2018-04-07T09:59:45.115Z,21.2
2018-04-07T10:00:46.754Z,20.4
2018-04-07T10:01:48.393Z,21.2
2018-04-07T10:02:50.039Z,22.4
2018-04-07T10:03:51.666Z,21.5
2018-04-07T10:04:53.307Z,21.4
2018-04-07T10:05:54.943Z,20.3
2018-04-07T10:06:56.580Z,20.8
2018-04-07T10:07:58.217Z,20.7
2018-04-07T10:08:59.861Z,20.9
2018-04-07T10:10:01.501Z,20.7
2018-04-07T10:11:03.141Z,21.2
2018-04-07T10:12:04.785Z,20.5
2018-04-07T10:13:07.421Z,21.0
2018-04-07T10:14:09.052Z,21.1
2018-04-07T10:15:10.689Z,21.1
2018-04-07T10:16:12.337Z,21.3
2018-04-07T10:17:13.970Z,21.2
2018-04-07T10:18:15.606Z,22.1
2018-04-07T10:19:17.248Z,21.5
2018-04-07T10:20:18.889Z,20.5
2018-04-07T10:21:20.528Z,20.9
2018-04-07T10:22:22.167Z,20.8
2018-04-07T10:23:23.814Z,20.6
2018-04-07T10:24:26.434Z,20.1
2018-04-07T10:25:28.069Z,20.1
2018-04-07T10:26:29.707Z,20.2
2018-04-07T10:27:31.344Z,19.6
2018-04-07T10:28:32.987Z,19.7
2018-04-07T10:29:34.629Z,19.8
2018-04-07T10:30:36.266Z,19.8
2018-04-07T10:31:37.904Z,19.2
2018-04-07T10:32:40.947Z,19.5
2018-04-07T10:33:42.589Z,18.8
2018-04-07T10:34:44.225Z,20.0
2018-04-07T10:35:45.866Z,20.7
2018-04-07T10:36:47.513Z,21.1
2018-04-07T10:37:49.143Z,20.6
2018-04-07T10:38:50.787Z,20.5
2018-04-07T10:39:52.419Z,20.4
2018-04-07T10:40:54.061Z,20.5
2018-04-07T10:41:55.702Z,20.8
2018-04-07T10:42:57.344Z,20.3
2018-04-07T10:43:58.984Z,20.9
2018-04-07T10:45:00.628Z,20.4
2018-04-07T10:46:02.267Z,20.2
2018-04-07T10:47:03.904Z,19.8
2018-04-07T10:48:05.544Z,19.3
2018-04-07T10:49:07.182Z,18.7
2018-04-07T10:50:08.819Z,19.3
2018-04-07T10:51:10.464Z,19.6
2018-04-07T10:52:12.108Z,20.1
2018-04-07T10:53:13.744Z,19.7
2018-04-07T10:54:15.386Z,19.8
2018-04-07T10:55:17.022Z,19.7
2018-04-07T10:56:18.670Z,20.3
2018-04-07T10:57:20.310Z,19.9
2018-04-07T10:58:21.955Z,20.0
2018-04-07T10:59:23.600Z,19.0
2018-04-07T11:00:25.240Z,19.5
2018-04-07T11:01:26.877Z,19.3
2018-04-07T11:02:28.519Z,19.4
2018-04-07T11:03:30.159Z,19.2
2018-04-07T11:04:31.799Z,19.5
2018-04-07T11:05:33.444Z,19.4
2018-04-07T11:06:35.086Z,20.3
2018-04-07T11:07:36.730Z,20.0
2018-04-07T11:08:38.372Z,19.6
2018-04-07T11:09:40.014Z,19.9
2018-04-07T11:10:41.667Z,19.1
2018-04-07T11:11:43.304Z,19.2
2018-04-07T11:12:44.950Z,18.8
2018-04-07T11:13:46.587Z,17.7
2018-04-07T11:14:48.231Z,18.3
2018-04-07T11:15:49.881Z,18.7
2018-04-07T11:16:51.518Z,19.1
2018-04-07T11:17:53.161Z,19.7
2018-04-07T11:18:54.803Z,19.9
2018-04-07T11:19:56.446Z,19.4
2018-04-07T11:20:58.084Z,19.8
2018-04-07T11:21:59.725Z,20.3
2018-04-07T11:23:01.364Z,19.9
2018-04-07T11:24:03.722Z,20.2
2018-04-07T11:25:05.361Z,20.8
2018-04-07T11:26:07.004Z,20.3
2018-04-07T11:27:08.642Z,19.1
2018-04-07T11:28:10.286Z,19.9
2018-04-07T11:29:12.112Z,20.0
2018-04-07T11:30:13.758Z,19.0
2018-04-07T11:31:15.395Z,19.0
2018-04-07T11:32:17.039Z,18.7
2018-04-07T11:33:18.675Z,18.6
2018-04-07T11:34:20.322Z,19.3
2018-04-07T11:35:21.990Z,18.9
2018-04-07T11:36:23.603Z,19.1
2018-04-07T11:37:25.241Z,18.7
2018-04-07T11:38:26.884Z,18.8
2018-04-07T11:39:28.521Z,18.9
2018-04-07T11:40:30.169Z,18.2
2018-04-07T11:41:31.816Z,17.8
2018-04-07T11:42:33.455Z,17.7
2018-04-07T11:43:35.093Z,17.7
2018-04-07T11:44:36.736Z,17.7
2018-04-07T11:45:38.373Z,17.7
2018-04-07T11:46:40.020Z,18.6
2018-04-07T11:47:41.658Z,19.1
2018-04-07T11:48:43.306Z,19.5
2018-04-07T11:49:44.963Z,20.1
2018-04-07T11:50:46.591Z,20.0
2018-04-07T11:51:48.225Z,19.0
2018-04-07T11:52:49.869Z,19.2
2018-04-07T11:53:51.512Z,19.0
2018-04-07T11:54:53.150Z,19.5
2018-04-07T11:55:54.791Z,20.7
2018-04-07T11:56:56.436Z,20.3
2018-04-07T11:57:58.079Z,20.2
2018-04-07T11:58:59.717Z,20.1
2018-04-07T12:00:01.354Z,19.2
2018-04-07T12:01:03.000Z,19.1
2018-04-07T12:02:04.646Z,19.3
2018-04-07T12:03:06.289Z,19.1
2018-04-07T12:04:07.928Z,18.9
2018-04-07T12:05:09.564Z,19.3
2018-04-07T12:06:11.205Z,18.9
2018-04-07T12:07:12.851Z,19.1
2018-04-07T12:08:14.489Z,19.2
2018-04-07T12:09:16.133Z,19.7
2018-04-07T12:10:17.777Z,19.0
2018-04-07T12:11:19.415Z,19.1
2018-04-07T12:12:21.052Z,19.8
2018-04-07T12:13:22.694Z,20.5
2018-04-07T12:14:24.333Z,20.9
2018-04-07T12:15:25.971Z,20.0
2018-04-07T12:16:27.610Z,20.1
2018-04-07T12:17:29.255Z,20.0
2018-04-07T12:18:30.897Z,20.1
2018-04-07T12:19:32.541Z,20.3
2018-04-07T12:20:34.175Z,19.9
2018-04-07T12:21:35.813Z,20.0
2018-04-07T12:22:37.459Z,19.8
2018-04-07T12:23:39.098Z,19.1
2018-04-07T12:24:40.747Z,19.3
2018-04-07T12:25:42.384Z,19.8
2018-04-07T12:26:44.025Z,19.8
2018-04-07T12:27:45.661Z,19.8
2018-04-07T12:28:47.302Z,19.7
2018-04-07T12:29:48.940Z,20.3
2018-04-07T12:30:50.580Z,20.1
2018-04-07T12:31:52.224Z,20.1
2018-04-07T12:32:53.863Z,20.1
2018-04-07T12:33:55.533Z,20.1
2018-04-07T12:34:57.144Z,19.7
2018-04-07T12:35:58.786Z,20.4
2018-04-07T12:37:00.421Z,20.1
2018-04-07T12:38:02.065Z,19.1
2018-04-07T12:39:03.705Z,19.3
2018-04-07T12:40:05.350Z,19.2
2018-04-07T12:41:06.988Z,18.6
2018-04-07T12:42:08.629Z,17.8
2018-04-07T12:43:10.264Z,18.7
2018-04-07T12:44:11.905Z,17.6
2018-04-07T12:45:13.547Z,17.5
2018-04-07T12:46:15.183Z,18.0
2018-04-07T12:47:16.824Z,19.1
2018-04-07T12:48:18.464Z,18.4
2018-04-07T12:49:20.099Z,18.7
2018-04-07T12:50:21.740Z,18.7
2018-04-07T12:51:23.376Z,19.1
2018-04-07T12:52:25.018Z,20.0
2018-04-07T12:53:26.656Z,19.5
2018-04-07T12:54:28.300Z,19.2
2018-04-07T12:55:29.935Z,19.4
2018-04-07T12:56:31.574Z,19.6
2018-04-07T12:57:33.213Z,19.5
2018-04-07T12:58:34.848Z,19.9
2018-04-07T12:59:36.485Z,18.9
2018-04-07T13:00:38.127Z,18.6
2018-04-07T13:01:39.766Z,19.0
2018-04-07T13:02:42.180Z,19.1
2018-04-07T13:03:43.818Z,18.6
2018-04-07T13:04:45.453Z,18.3
2018-04-07T13:05:47.090Z,19.0
2018-04-07T13:06:48.735Z,18.4
2018-04-07T13:07:50.370Z,18.1
2018-04-07T13:08:52.012Z,18.4
2018-04-07T13:09:53.646Z,18.6
2018-04-07T13:10:55.279Z,18.4
2018-04-07T13:11:56.916Z,18.4
2018-04-07T13:12:58.556Z,18.4
2018-04-07T13:14:00.188Z,19.0
2018-04-07T13:15:01.833Z,18.7
2018-04-07T13:16:03.470Z,18.8
2018-04-07T13:17:05.114Z,18.9
2018-04-07T13:18:06.746Z,19.1
2018-04-07T13:19:08.384Z,18.8
2018-04-07T13:20:10.025Z,18.7
2018-04-07T13:21:11.660Z,18.6
2018-04-07T13:22:13.296Z,18.3
2018-04-07T13:23:14.937Z,18.2
2018-04-07T13:24:16.568Z,18.3
2018-04-07T13:25:18.209Z,17.4
2018-04-07T13:26:19.880Z,17.4
2018-04-07T13:27:22.296Z,17.9
2018-04-07T13:28:23.897Z,17.6
2018-04-07T13:29:25.536Z,18.5
2018-04-07T13:30:27.171Z,19.2
2018-04-07T13:31:28.803Z,18.3
2018-04-07T13:32:30.442Z,17.6
2018-04-07T13:33:38.525Z,17.8
2018-04-07T13:34:33.720Z,17.7
2018-04-07T13:35:35.363Z,17.7
2018-04-07T13:36:36.993Z,18.4
2018-04-07T13:37:38.633Z,18.3
2018-04-07T13:38:40.271Z,18.5
2018-04-07T13:39:41.901Z,18.8
2018-04-07T13:40:43.542Z,18.9